Gillett, Texas
Current Conditions -  °F | °C
As of 12:15 AM on Wednesday 22 Oct 2014 (Local Time) from KT20 Reporting Station
Clear Clear  
Wind Chill: 66°   Ceiling: Unl
Heat Index: 66°   Visibility: 10mi
Dew Point: 53°   Wind: 0mph
Humidity: 62%   Direction: NA
Pressure: 30.03"   Gusts: NA
Location:  29.13°N, 97.78°W
Report Text: KT20 220515Z AUTO 00000KT 10SM CLR 19/12 A3003 RMK AO2 T01900115
Loading
Personal Weather Stations






























Interactive Weather Map
Tropical Storm Tracking
New forecast layout! Learn more

10-Day Weather Forecast

Advertisements
Track Severe Weather on mobile